Time;durP1;ratioP1;P1;durP2;ratioP2;P2;SDS_P1;SDS_P2;PMS_P1;PMS_P2;Temp;Humidity;BMP_temperature;BMP_pressure;BME280_temperature;BME280_humidity;BME280_pressure;Samples;Min_cycle;Max_cycle;Signal;HPM_P1;HPM_P2
2022/02/19 00:02:04;;;;;;;5.27;1.30;;;9.40;90.10;;;;;;5047066;28;20208;-82
2022/02/19 00:04:30;;;;;;;3.70;1.53;;;8.90;90.00;;;;;;5028881;28;20190;-82
2022/02/19 00:06:55;;;;;;;2.17;1.40;;;9.10;90.30;;;;;;5033693;28;20285;-82
2022/02/19 00:09:21;;;;;;;1.10;1.00;;;8.90;90.80;;;;;;5050255;28;20396;-82
2022/02/19 00:11:47;;;;;;;3.33;1.43;;;9.20;90.90;;;;;;5049366;28;20562;-82
2022/02/19 00:14:12;;;;;;;5.65;1.50;;;8.90;90.70;;;;;;5032996;28;20186;-82
2022/02/19 00:16:38;;;;;;;3.03;1.33;;;9.40;91.00;;;;;;5048502;28;20529;-80
2022/02/19 00:19:04;;;;;;;5.67;1.47;;;8.60;90.40;;;;;;5025462;28;20490;-80
2022/02/19 00:21:29;;;;;;;3.43;2.07;;;9.30;90.50;;;;;;5040561;28;20292;-81
2022/02/19 00:23:55;;;;;;;4.50;1.50;;;8.80;90.30;;;;;;5033988;28;20174;-79
2022/02/19 00:26:20;;;;;;;4.10;1.40;;;9.30;90.80;;;;;;5041123;28;20197;-81
2022/02/19 00:28:46;;;;;;;3.87;1.27;;;9.20;90.00;;;;;;5041633;28;20723;-81
2022/02/19 00:31:12;;;;;;;4.50;1.25;;;8.70;88.60;;;;;;5036098;28;20400;-81
2022/02/19 00:33:38;;;;;;;4.07;1.20;;;9.10;89.20;;;;;;5047112;28;20769;-81
2022/02/19 00:36:03;;;;;;;2.97;1.30;;;9.20;88.60;;;;;;5035555;28;20175;-81
2022/02/19 00:38:29;;;;;;;4.53;1.63;;;8.80;88.20;;;;;;5044058;28;20308;-81
2022/02/19 00:40:55;;;;;;;2.65;1.48;;;9.00;88.30;;;;;;5040140;28;20202;-81
2022/02/19 00:43:20;;;;;;;3.60;1.30;;;8.70;88.10;;;;;;5034654;28;20622;-81
2022/02/19 00:45:48;;;;;;;5.23;1.53;;;9.30;88.70;;;;;;5039061;28;20185;-81
2022/02/19 00:48:14;;;;;;;1.30;1.10;;;9.30;88.30;;;;;;5034308;28;20655;-80
2022/02/19 00:50:40;;;;;;;5.00;1.30;;;8.80;87.40;;;;;;5046168;28;20216;-81
2022/02/19 00:53:05;;;;;;;4.40;1.73;;;9.50;88.70;;;;;;5046098;28;20611;-81
2022/02/19 00:55:31;;;;;;;2.93;1.43;;;9.20;87.80;;;;;;5030294;28;20333;-81
2022/02/19 00:57:56;;;;;;;3.00;1.73;;;8.90;87.40;;;;;;5033987;28;20189;-81
2022/02/19 01:00:22;;;;;;;3.27;1.60;;;8.80;87.50;;;;;;5042328;28;20217;-81
2022/02/19 01:02:48;;;;;;;2.93;1.50;;;8.60;87.20;;;;;;5028215;28;20195;-81
2022/02/19 01:05:13;;;;;;;2.90;1.30;;;9.20;86.90;;;;;;5041759;28;20256;-81
2022/02/19 01:07:39;;;;;;;5.30;1.97;;;9.10;86.50;;;;;;5042624;28;21208;-81
2022/02/19 01:10:07;;;;;;;2.53;1.17;;;8.80;85.70;;;;;;5040335;28;20252;-81
2022/02/19 01:12:33;;;;;;;4.25;1.15;;;9.10;86.20;;;;;;5047221;28;20178;-81
2022/02/19 01:14:59;;;;;;;2.80;1.38;;;8.90;85.50;;;;;;5036510;28;20192;-81
2022/02/19 01:17:24;;;;;;;2.03;1.27;;;9.00;85.30;;;;;;5040628;28;20879;-81
2022/02/19 01:19:50;;;;;;;3.93;1.23;;;9.20;85.80;;;;;;5044184;28;20187;-81
2022/02/19 01:22:15;;;;;;;3.00;1.80;;;8.50;85.20;;;;;;5050952;28;20235;-81
2022/02/19 01:24:41;;;;;;;4.50;2.10;;;8.70;85.10;;;;;;5045834;28;20194;-81
2022/02/19 01:27:06;;;;;;;5.90;1.20;;;9.20;85.80;;;;;;5037162;28;20190;-81
2022/02/19 01:29:32;;;;;;;6.07;1.57;;;9.30;85.00;;;;;;5039373;28;20210;-82
2022/02/19 01:31:58;;;;;;;3.20;1.43;;;9.10;85.10;;;;;;5049528;28;20216;-81
2022/02/19 01:34:23;;;;;;;4.63;1.47;;;8.80;84.60;;;;;;5040379;28;20292;-81
2022/02/19 01:36:49;;;;;;;4.07;1.50;;;8.80;84.40;;;;;;5047271;28;20643;-81
2022/02/19 01:39:15;;;;;;;7.68;1.63;;;8.80;84.30;;;;;;5044561;28;20264;-81
2022/02/19 01:41:41;;;;;;;3.00;1.20;;;9.20;84.20;;;;;;5029594;28;20316;-81
2022/02/19 01:44:08;;;;;;;5.90;1.87;;;8.70;84.40;;;;;;5041373;28;20260;-81
2022/02/19 01:46:35;;;;;;;3.00;1.40;;;8.90;84.40;;;;;;5047580;28;20186;-81
2022/02/19 01:49:01;;;;;;;4.35;1.35;;;8.90;83.70;;;;;;5041459;28;20301;-81
2022/02/19 01:51:31;;;;;;;6.68;1.58;;;9.00;83.20;;;;;;5037328;28;20201;-81
2022/02/19 01:54:08;;;;;;;3.42;1.33;;;8.80;82.90;;;;;;5050010;28;20177;-81
2022/02/19 01:56:34;;;;;;;7.30;2.13;;;8.60;81.70;;;;;;5038397;28;20225;-81
2022/02/19 01:59:00;;;;;;;3.20;1.45;;;8.80;81.90;;;;;;5048124;28;20665;-81
2022/02/19 02:01:26;;;;;;;1.70;1.10;;;8.80;81.90;;;;;;5037600;28;20203;-81
2022/02/19 02:03:51;;;;;;;6.67;2.33;;;8.90;82.30;;;;;;5032880;28;20236;-81
2022/02/19 02:06:18;;;;;;;4.30;1.57;;;8.70;82.50;;;;;;5035186;28;20256;-81
2022/02/19 02:08:44;;;;;;;2.88;1.38;;;9.10;82.10;;;;;;5038141;28;20287;-81
2022/02/19 02:11:10;;;;;;;2.70;1.25;;;8.10;81.80;;;;;;5035343;28;20202;-81
2022/02/19 02:13:35;;;;;;;4.73;1.90;;;8.90;82.80;;;;;;5036258;28;20197;-81
2022/02/19 02:16:01;;;;;;;5.53;1.30;;;9.00;82.50;;;;;;5056156;28;20177;-81
2022/02/19 02:18:26;;;;;;;7.43;1.73;;;8.60;81.20;;;;;;5040602;28;20643;-82
2022/02/19 02:20:53;;;;;;;3.53;1.20;;;8.70;81.80;;;;;;5048528;28;20291;-81
2022/02/19 02:23:20;;;;;;;3.28;1.20;;;9.00;81.40;;;;;;5037308;28;20213;-81
2022/02/19 02:25:46;;;;;;;3.83;1.27;;;8.80;82.10;;;;;;5038887;28;20541;-81
2022/02/19 02:28:12;;;;;;;3.42;1.65;;;8.70;81.40;;;;;;5032167;28;20540;-81
2022/02/19 02:30:38;;;;;;;4.80;1.70;;;8.50;81.00;;;;;;5044225;28;20210;-81
2022/02/19 02:33:12;;;;;;;2.55;1.20;;;8.80;82.10;;;;;;5044973;28;20738;-81
2022/02/19 02:35:38;;;;;;;3.25;1.70;;;8.20;81.20;;;;;;5046588;28;20599;-81
2022/02/19 02:38:04;;;;;;;3.83;1.20;;;8.50;80.50;;;;;;5041629;28;20185;-81
2022/02/19 02:40:32;;;;;;;5.50;1.30;;;8.80;81.40;;;;;;5042979;28;20640;-81
2022/02/19 02:42:57;;;;;;;10.80;2.17;;;8.50;81.30;;;;;;5052605;28;20237;-81
2022/02/19 02:45:23;;;;;;;4.57;1.30;;;8.80;81.70;;;;;;5043390;28;20654;-82
2022/02/19 02:47:49;;;;;;;4.20;1.27;;;8.10;80.30;;;;;;5049778;28;20565;-81
2022/02/19 02:50:14;;;;;;;7.90;1.67;;;8.40;80.80;;;;;;5053418;28;20299;-81
2022/02/19 02:52:40;;;;;;;6.60;1.57;;;8.20;80.60;;;;;;5055582;28;20527;-81
2022/02/19 02:55:07;;;;;;;3.53;1.47;;;8.20;80.80;;;;;;5056542;28;20181;-81
2022/02/19 02:57:34;;;;;;;4.45;1.40;;;8.20;80.50;;;;;;5042977;28;20450;-81
2022/02/19 03:00:00;;;;;;;5.90;1.73;;;8.00;80.60;;;;;;5049719;28;20224;-80
2022/02/19 03:02:26;;;;;;;4.45;1.40;;;8.40;81.60;;;;;;5038818;28;20281;-80
2022/02/19 03:04:51;;;;;;;5.60;1.30;;;8.30;82.10;;;;;;5048268;28;20728;-81
2022/02/19 03:07:17;;;;;;;2.53;1.87;;;8.30;81.40;;;;;;5039478;28;20682;-82
2022/02/19 03:09:42;;;;;;;2.77;1.30;;;8.00;82.30;;;;;;5034781;28;20222;-82
2022/02/19 03:12:10;;;;;;;3.60;1.30;;;8.40;82.50;;;;;;5039828;28;20545;-81
2022/02/19 03:14:35;;;;;;;4.68;1.15;;;8.10;83.10;;;;;;5041764;28;20454;-81
2022/02/19 03:17:01;;;;;;;4.60;1.50;;;8.20;81.40;;;;;;5048013;28;20177;-81
2022/02/19 03:19:26;;;;;;;4.57;1.50;;;8.10;82.40;;;;;;5040831;28;20210;-80
2022/02/19 03:21:52;;;;;;;5.30;1.93;;;8.20;82.10;;;;;;5048029;28;20701;-81
2022/02/19 03:24:18;;;;;;;4.20;1.77;;;8.20;81.90;;;;;;5035246;28;20187;-81
2022/02/19 03:26:44;;;;;;;5.70;1.27;;;8.10;83.40;;;;;;5042776;28;20227;-81
2022/02/19 03:29:10;;;;;;;2.73;1.30;;;8.00;82.40;;;;;;5042473;28;20291;-81
2022/02/19 03:31:35;;;;;;;5.03;1.63;;;8.10;81.40;;;;;;5045111;28;20500;-81
2022/02/19 03:34:01;;;;;;;5.73;1.67;;;8.00;81.20;;;;;;5028240;28;20769;-80
2022/02/19 03:36:27;;;;;;;5.40;1.50;;;7.80;81.40;;;;;;5034360;28;20240;-81
2022/02/19 03:38:52;;;;;;;5.93;1.53;;;8.10;81.70;;;;;;5034969;28;20182;-81
2022/02/19 03:41:18;;;;;;;4.03;1.97;;;8.10;82.40;;;;;;5038031;28;20209;-81
2022/02/19 03:43:44;;;;;;;3.30;1.67;;;8.30;82.10;;;;;;5038131;28;20445;-82
2022/02/19 03:46:09;;;;;;;3.97;1.50;;;7.80;81.50;;;;;;5043461;28;20188;-81
2022/02/19 03:48:35;;;;;;;3.03;1.60;;;8.00;82.40;;;;;;5045652;28;20758;-82
2022/02/19 03:51:00;;;;;;;5.70;1.33;;;7.30;82.30;;;;;;5035282;28;20297;-81
2022/02/19 03:53:26;;;;;;;4.90;2.03;;;8.40;83.20;;;;;;5049269;28;20182;-81
2022/02/19 03:55:51;;;;;;;2.50;1.40;;;7.80;83.30;;;;;;5046494;28;20174;-81
2022/02/19 03:58:17;;;;;;;5.50;2.03;;;7.80;82.80;;;;;;5026949;28;20201;-81
2022/02/19 04:00:42;;;;;;;3.13;1.43;;;8.30;84.00;;;;;;5030339;28;20205;-81
2022/02/19 04:03:09;;;;;;;2.30;1.33;;;7.80;82.90;;;;;;5029575;28;20222;-81
2022/02/19 04:05:35;;;;;;;4.38;1.10;;;7.60;83.70;;;;;;5040600;28;20194;-80
2022/02/19 04:08:01;;;;;;;3.33;1.20;;;7.60;83.90;;;;;;5059576;28;20176;-80
2022/02/19 04:10:26;;;;;;;5.80;1.67;;;8.10;84.30;;;;;;5040979;28;20236;-80
2022/02/19 04:12:52;;;;;;;2.97;1.50;;;8.20;84.60;;;;;;5043734;28;20213;-80
2022/02/19 04:15:18;;;;;;;4.50;1.57;;;7.90;84.20;;;;;;5044518;28;20189;-81
2022/02/19 04:17:43;;;;;;;4.97;1.30;;;7.90;84.20;;;;;;5035696;28;20183;-80
2022/02/19 04:20:09;;;;;;;2.53;1.23;;;7.70;83.80;;;;;;5043923;28;20272;-80
2022/02/19 04:22:35;;;;;;;2.47;1.60;;;7.50;82.50;;;;;;5051586;28;20276;-81
2022/02/19 04:25:02;;;;;;;2.00;1.08;;;7.90;83.00;;;;;;5061785;28;20468;-80
2022/02/19 04:27:27;;;;;;;2.95;1.35;;;7.70;82.30;;;;;;5048975;28;20178;-80
2022/02/19 04:29:53;;;;;;;3.47;1.87;;;7.50;83.60;;;;;;5037869;28;20217;-81
2022/02/19 04:32:18;;;;;;;6.43;1.33;;;7.80;83.90;;;;;;5052334;28;20182;-81
2022/02/19 04:34:44;;;;;;;3.50;1.20;;;7.30;81.90;;;;;;5034069;28;20240;-80
2022/02/19 04:37:10;;;;;;;2.60;1.43;;;7.30;81.80;;;;;;5046870;28;20186;-81
2022/02/19 04:39:35;;;;;;;2.83;1.20;;;7.20;81.20;;;;;;5050592;28;20193;-80
2022/02/19 04:42:01;;;;;;;2.97;1.10;;;7.40;82.50;;;;;;5038349;28;20751;-81
2022/02/19 04:44:27;;;;;;;5.03;1.50;;;7.70;82.80;;;;;;5028204;28;20209;-81
2022/02/19 04:46:52;;;;;;;4.70;1.67;;;7.10;82.90;;;;;;5047749;28;20215;-81
2022/02/19 04:49:18;;;;;;;6.30;1.40;;;7.20;82.60;;;;;;5033821;28;20602;-80
2022/02/19 04:51:44;;;;;;;4.78;1.23;;;7.50;83.10;;;;;;5038574;28;20212;-81
2022/02/19 04:54:09;;;;;;;7.40;1.40;;;7.20;82.90;;;;;;5042698;28;20256;-81
2022/02/19 04:56:35;;;;;;;3.10;1.20;;;7.00;82.40;;;;;;5043530;28;20244;-81
2022/02/19 04:59:01;;;;;;;5.30;1.70;;;7.00;83.00;;;;;;5042731;28;20243;-81
2022/02/19 05:01:26;;;;;;;5.40;1.63;;;7.00;83.40;;;;;;5052510;28;20658;-80
2022/02/19 05:03:54;;;;;;;4.97;1.30;;;7.10;82.90;;;;;;5042676;28;20555;-80
2022/02/19 05:06:20;;;;;;;3.75;1.40;;;7.00;83.20;;;;;;5044028;28;20186;-81
2022/02/19 05:08:46;;;;;;;3.30;1.10;;;6.90;82.90;;;;;;5039326;28;20262;-80
2022/02/19 05:11:11;;;;;;;5.93;1.80;;;7.10;83.20;;;;;;5043882;28;20457;-80
2022/02/19 05:13:37;;;;;;;3.87;1.50;;;6.90;84.10;;;;;;5038032;28;20282;-81
2022/02/19 05:16:03;;;;;;;4.57;1.30;;;7.20;83.30;;;;;;5048170;28;20647;-81
2022/02/19 05:18:28;;;;;;;5.17;1.63;;;7.10;83.50;;;;;;5036695;28;20212;-80
2022/02/19 05:20:54;;;;;;;5.87;1.50;;;7.20;83.30;;;;;;5038330;28;20280;-80
2022/02/19 05:23:22;;;;;;;4.90;1.50;;;7.10;83.50;;;;;;5045851;28;20188;-82
2022/02/19 05:25:49;;;;;;;4.13;1.40;;;7.00;83.40;;;;;;5049671;28;20174;-81
2022/02/19 05:28:14;;;;;;;3.92;1.60;;;6.70;82.50;;;;;;5021688;28;20186;-80
2022/02/19 05:30:40;;;;;;;7.00;2.00;;;7.00;83.50;;;;;;5023169;28;20225;-80
2022/02/19 05:33:06;;;;;;;5.33;1.30;;;7.20;85.00;;;;;;5045953;28;20233;-80
2022/02/19 05:35:32;;;;;;;4.53;2.00;;;6.80;84.10;;;;;;5045749;28;20469;-81
2022/02/19 05:37:57;;;;;;;3.60;1.37;;;6.60;83.60;;;;;;5039425;28;20178;-81
2022/02/19 05:40:23;;;;;;;3.87;1.37;;;6.60;83.70;;;;;;5035873;28;20518;-81
2022/02/19 05:42:48;;;;;;;1.83;1.30;;;6.80;84.50;;;;;;5036655;28;20195;-81
2022/02/19 05:45:14;;;;;;;4.10;1.70;;;7.30;84.80;;;;;;5038267;28;20214;-81
2022/02/19 05:47:39;;;;;;;2.80;1.33;;;6.80;83.50;;;;;;5044711;28;21416;-81
2022/02/19 05:50:06;;;;;;;4.33;1.70;;;6.80;84.30;;;;;;5043403;28;20216;-81
2022/02/19 05:52:31;;;;;;;4.10;1.60;;;6.80;84.30;;;;;;5036140;28;20221;-81
2022/02/19 05:54:57;;;;;;;3.90;1.20;;;7.10;83.70;;;;;;5049783;28;20204;-81
2022/02/19 05:57:23;;;;;;;3.93;1.27;;;6.80;84.70;;;;;;5049143;28;20178;-82
2022/02/19 05:59:49;;;;;;;3.65;1.45;;;6.80;84.50;;;;;;5048679;28;20652;-82
2022/02/19 06:02:15;;;;;;;3.60;1.65;;;6.60;84.60;;;;;;5044474;28;20189;-83
2022/02/19 06:04:41;;;;;;;3.30;1.43;;;6.80;85.60;;;;;;5053524;28;20181;-80
2022/02/19 06:07:06;;;;;;;3.90;1.37;;;6.80;85.10;;;;;;5048833;28;20189;-82
2022/02/19 06:09:32;;;;;;;6.67;2.23;;;6.70;84.90;;;;;;5046648;28;20227;-82
2022/02/19 06:11:57;;;;;;;4.10;1.60;;;6.80;85.00;;;;;;5039605;28;20259;-80
2022/02/19 06:14:23;;;;;;;4.83;1.83;;;6.70;85.10;;;;;;5048013;28;20608;-82
2022/02/19 06:16:51;;;;;;;10.73;2.30;;;6.80;86.30;;;;;;5044353;28;20169;-81
2022/02/19 06:19:17;;;;;;;5.13;1.70;;;6.50;85.90;;;;;;5036239;28;20212;-82
2022/02/19 06:21:43;;;;;;;3.60;1.43;;;6.70;85.50;;;;;;5039862;28;20206;-82
2022/02/19 06:24:09;;;;;;;4.93;1.33;;;6.80;85.80;;;;;;5039897;28;20632;-82
2022/02/19 06:26:34;;;;;;;4.80;1.77;;;6.60;85.40;;;;;;5038080;28;20752;-82
2022/02/19 06:29:00;;;;;;;4.53;1.40;;;6.70;85.60;;;;;;5038916;28;20210;-83
2022/02/19 06:31:26;;;;;;;2.87;1.33;;;6.60;85.80;;;;;;5044329;28;20308;-81
2022/02/19 06:33:51;;;;;;;3.10;1.50;;;6.60;85.60;;;;;;5041240;28;20428;-81
2022/02/19 06:36:18;;;;;;;6.10;2.10;;;6.50;86.90;;;;;;5035139;28;20171;-81
2022/02/19 06:38:43;;;;;;;6.68;1.73;;;6.60;85.40;;;;;;5036480;28;20200;-81
2022/02/19 06:41:10;;;;;;;3.23;1.53;;;6.40;85.80;;;;;;5036318;28;20690;-81
2022/02/19 06:43:36;;;;;;;3.88;2.45;;;6.60;86.10;;;;;;5041725;28;20193;-81
2022/02/19 06:46:02;;;;;;;2.10;1.10;;;6.40;86.30;;;;;;5046686;28;20169;-81
2022/02/19 06:48:27;;;;;;;2.10;1.10;;;6.90;86.40;;;;;;5042187;28;20230;-81
2022/02/19 06:50:53;;;;;;;6.37;1.87;;;6.40;86.60;;;;;;5040976;28;20216;-82
2022/02/19 06:53:19;;;;;;;2.35;1.40;;;6.60;87.10;;;;;;5044498;28;20542;-81
2022/02/19 06:55:45;;;;;;;7.23;1.40;;;6.50;86.30;;;;;;5043388;28;20232;-80
2022/02/19 06:58:11;;;;;;;5.87;1.80;;;6.40;86.20;;;;;;5036695;28;20175;-82
2022/02/19 07:00:36;;;;;;;7.63;1.97;;;6.90;87.10;;;;;;5035686;28;20463;-83
2022/02/19 07:03:02;;;;;;;2.90;1.57;;;6.40;85.90;;;;;;5037497;28;20193;-84
2022/02/19 07:05:27;;;;;;;7.37;2.23;;;6.40;87.00;;;;;;5038585;28;20668;-81
2022/02/19 07:07:53;;;;;;;7.13;2.77;;;7.00;87.90;;;;;;5050401;28;20264;-78
2022/02/19 07:10:19;;;;;;;2.77;1.10;;;6.60;87.30;;;;;;5040064;28;20217;-78
2022/02/19 07:12:45;;;;;;;7.43;1.67;;;6.90;87.20;;;;;;5042251;28;20197;-81
2022/02/19 07:15:11;;;;;;;3.03;1.30;;;7.00;86.20;;;;;;5045833;28;20448;-83
2022/02/19 07:17:51;;;;;;;6.38;1.73;;;6.80;85.90;;;;;;5036823;28;20270;-82
2022/02/19 07:20:20;;;;;;;3.85;1.80;;;6.60;86.00;;;;;;5031559;28;20206;-83
2022/02/19 07:22:46;;;;;;;8.55;1.65;;;6.40;84.80;;;;;;5047471;28;20185;-86
2022/02/19 07:25:11;;;;;;;2.85;1.50;;;6.60;84.80;;;;;;5056259;28;20182;-89
2022/02/19 07:27:39;;;;;;;3.50;1.57;;;7.10;85.30;;;;;;5045289;28;20220;-86
2022/02/19 07:30:06;;;;;;;8.55;1.77;;;7.10;85.60;;;;;;5043969;28;20205;-86
2022/02/19 07:32:31;;;;;;;3.65;1.70;;;6.90;84.80;;;;;;5040140;28;20269;-83
2022/02/19 07:34:58;;;;;;;5.70;1.50;;;6.40;84.80;;;;;;5024513;28;20190;-83
2022/02/19 07:37:24;;;;;;;3.20;1.40;;;6.70;84.20;;;;;;5047082;28;20177;-85
2022/02/19 07:39:51;;;;;;;3.10;1.30;;;7.10;84.40;;;;;;5052301;28;20234;-86
2022/02/19 07:42:16;;;;;;;2.65;1.30;;;7.20;84.50;;;;;;5049561;28;20600;-90
2022/02/19 07:44:42;;;;;;;5.07;1.50;;;7.50;84.50;;;;;;5042941;28;20189;-88
2022/02/19 07:47:07;;;;;;;4.50;1.50;;;6.90;83.40;;;;;;5037270;28;20247;-88
2022/02/19 08:00:29;;;;;;;3.10;1.35;;;8.10;81.80;;;;;;5044500;28;20306;-88
2022/02/19 08:02:55;;;;;;;3.00;1.10;;;7.70;82.00;;;;;;5050732;28;20194;-88
2022/02/19 08:05:20;;;;;;;3.83;1.30;;;7.90;82.10;;;;;;5041453;28;20662;-88
2022/02/19 08:07:46;;;;;;;4.07;1.60;;;7.80;81.30;;;;;;5030717;28;20196;-87
2022/02/19 08:10:11;;;;;;;7.70;1.70;;;7.90;82.20;;;;;;5046654;28;20300;-88
2022/02/19 08:12:37;;;;;;;7.30;1.53;;;8.30;82.00;;;;;;5030538;28;20196;-88
2022/02/19 08:15:03;;;;;;;5.57;1.40;;;8.30;82.30;;;;;;5031055;28;20189;-86
2022/02/19 08:17:29;;;;;;;5.57;1.70;;;8.20;82.40;;;;;;5024175;28;20247;-80
2022/02/19 08:19:56;;;;;;;6.13;1.73;;;8.20;81.90;;;;;;5024305;28;20971;-81
2022/02/19 08:22:21;;;;;;;9.88;1.65;;;8.40;82.30;;;;;;5025915;28;20670;-79
2022/02/19 08:24:47;;;;;;;2.40;1.30;;;8.00;81.40;;;;;;5026887;28;20190;-81
2022/02/19 08:27:12;;;;;;;3.87;1.30;;;8.20;82.00;;;;;;5026666;28;20174;-80
2022/02/19 08:29:38;;;;;;;6.07;1.90;;;8.20;81.80;;;;;;5027185;28;20723;-80
2022/02/19 08:32:04;;;;;;;3.47;1.33;;;8.20;81.80;;;;;;5026941;28;20287;-80
2022/02/19 08:34:30;;;;;;;5.95;1.58;;;7.70;82.10;;;;;;5020723;28;20745;-81
2022/02/19 08:36:56;;;;;;;6.57;1.43;;;8.10;82.70;;;;;;5026430;28;21166;-82
2022/02/19 08:39:24;;;;;;;3.00;1.30;;;7.50;82.30;;;;;;5027518;28;20229;-82
2022/02/19 08:41:49;;;;;;;2.75;1.15;;;7.80;82.30;;;;;;5026126;28;20241;-83
2022/02/19 08:44:15;;;;;;;3.17;1.63;;;8.00;82.90;;;;;;5030346;28;20424;-80
2022/02/19 08:46:40;;;;;;;3.00;1.33;;;8.20;83.00;;;;;;5024799;28;20192;-83
2022/02/19 08:49:06;;;;;;;5.47;1.77;;;8.20;83.80;;;;;;5019521;28;20670;-78
2022/02/19 08:51:31;;;;;;;3.50;1.80;;;7.70;82.70;;;;;;5028227;28;20350;-80
2022/02/19 08:53:57;;;;;;;5.87;1.90;;;7.80;82.50;;;;;;5027815;28;20193;-79
2022/02/19 08:56:22;;;;;;;4.40;1.10;;;7.80;82.60;;;;;;5028311;28;20178;-80
2022/02/19 08:58:48;;;;;;;4.43;1.33;;;8.30;82.20;;;;;;5025970;28;20185;-80
2022/02/19 09:01:13;;;;;;;5.10;1.50;;;8.10;81.50;;;;;;5021575;28;20234;-84
2022/02/19 09:03:39;;;;;;;5.20;1.27;;;7.90;81.20;;;;;;5025984;28;20186;-83
2022/02/19 09:06:05;;;;;;;3.40;1.90;;;9.20;79.80;;;;;;5027465;28;20201;-84
2022/02/19 09:08:30;;;;;;;4.27;1.50;;;9.60;77.00;;;;;;5029561;28;20186;-83
2022/02/19 09:10:56;;;;;;;2.70;1.13;;;10.40;73.10;;;;;;5031908;28;20238;-83
2022/02/19 09:13:21;;;;;;;3.00;1.60;;;11.60;71.10;;;;;;5033683;28;20191;-85
2022/02/19 09:15:49;;;;;;;2.90;1.63;;;12.50;68.50;;;;;;5042623;28;20240;-84
2022/02/19 09:18:15;;;;;;;2.80;1.30;;;12.90;65.80;;;;;;5028200;28;20429;-83
2022/02/19 09:20:40;;;;;;;4.83;2.07;;;13.80;62.90;;;;;;5025063;28;20263;-84
2022/02/19 09:23:06;;;;;;;4.40;2.20;;;13.80;61.10;;;;;;5028853;28;20666;-84
2022/02/19 09:25:31;;;;;;;2.87;1.47;;;14.10;60.00;;;;;;5032168;28;20189;-84
2022/02/19 09:27:57;;;;;;;2.33;1.30;;;14.50;59.00;;;;;;5035824;28;20190;-84
2022/02/19 09:30:23;;;;;;;3.10;1.37;;;15.00;58.10;;;;;;5041813;28;20471;-84
2022/02/19 09:32:49;;;;;;;4.67;1.93;;;14.30;57.70;;;;;;5036962;28;20183;-84
2022/02/19 09:35:15;;;;;;;1.73;1.23;;;14.00;58.30;;;;;;5035227;28;20689;-84
2022/02/19 09:37:41;;;;;;;5.27;1.90;;;14.60;58.50;;;;;;5035812;28;20219;-84
2022/02/19 09:40:08;;;;;;;4.50;1.73;;;14.20;58.20;;;;;;5041586;28;20376;-84
2022/02/19 09:42:36;;;;;;;4.20;1.42;;;13.80;58.40;;;;;;5029968;28;20216;-84
2022/02/19 09:45:03;;;;;;;4.05;1.58;;;13.70;57.90;;;;;;5030566;28;20204;-83
2022/02/19 09:47:30;;;;;;;2.38;1.73;;;14.10;57.60;;;;;;5028952;28;20225;-84
2022/02/19 09:49:57;;;;;;;3.72;1.50;;;15.50;56.50;;;;;;5019576;28;20206;-83
2022/02/19 09:52:24;;;;;;;4.28;1.85;;;15.80;54.40;;;;;;5040779;28;20181;-84
2022/02/19 09:54:51;;;;;;;2.42;1.10;;;15.80;54.40;;;;;;5043456;28;20178;-84
2022/02/19 09:57:17;;;;;;;3.83;1.60;;;15.70;53.50;;;;;;5033911;28;20182;-84
2022/02/19 09:59:42;;;;;;;3.43;1.20;;;15.90;54.50;;;;;;5042188;28;20185;-83
2022/02/19 10:02:08;;;;;;;3.70;1.60;;;15.10;54.80;;;;;;5030471;28;20457;-84
2022/02/19 10:04:35;;;;;;;4.95;1.70;;;15.40;54.30;;;;;;5020318;28;20459;-84
2022/02/19 10:07:17;;;;;;;3.90;1.67;;;14.90;53.80;;;;;;5025532;28;20178;-84
2022/02/19 10:09:48;;;;;;;4.03;2.05;;;14.50;55.00;;;;;;5030276;28;20284;-84
2022/02/19 10:12:15;;;;;;;4.97;2.05;;;14.50;55.90;;;;;;5029953;28;20263;-85
2022/02/19 10:14:43;;;;;;;6.18;1.95;;;14.50;55.60;;;;;;5033341;28;20170;-84
2022/02/19 10:17:17;;;;;;;3.78;1.42;;;14.30;55.80;;;;;;5039380;28;20178;-84
2022/02/19 10:20:00;;;;;;;3.67;1.60;;;14.60;55.70;;;;;;5028177;28;20206;-85
2022/02/19 10:22:28;;;;;;;2.78;1.35;;;14.40;54.80;;;;;;5030556;28;20258;-84
2022/02/19 10:25:00;;;;;;;3.13;1.50;;;13.90;55.00;;;;;;5038573;28;20261;-84
2022/02/19 10:28:07;;;;;;;4.05;1.20;;;13.90;54.30;;;;;;5036837;28;20185;-84
2022/02/19 10:30:33;;;;;;;3.80;1.45;;;13.60;55.20;;;;;;5031973;28;20233;-84
2022/02/19 10:33:00;;;;;;;4.40;1.50;;;13.10;55.80;;;;;;5030182;28;20182;-83
2022/02/19 10:35:40;;;;;;;3.83;1.95;;;13.50;57.10;;;;;;5032365;28;20441;-84
2022/02/19 10:38:11;;;;;;;4.05;1.55;;;12.70;57.90;;;;;;5029518;28;20272;-84
2022/02/19 10:40:43;;;;;;;2.35;1.02;;;12.90;57.90;;;;;;5045139;28;20206;-83
2022/02/19 10:43:17;;;;;;;3.90;1.30;;;13.50;56.30;;;;;;5033949;28;20578;-84
2022/02/19 10:45:56;;;;;;;3.05;1.65;;;14.40;54.90;;;;;;5041163;28;20185;-84
2022/02/19 10:48:33;;;;;;;7.05;1.52;;;14.90;53.80;;;;;;5031560;28;20186;-83
2022/02/19 10:51:12;;;;;;;2.33;1.10;;;15.20;52.70;;;;;;5033425;28;20316;-84
2022/02/19 10:53:39;;;;;;;3.38;1.40;;;14.30;52.80;;;;;;5038914;28;20228;-85
2022/02/19 10:56:17;;;;;;;5.65;1.98;;;14.90;52.50;;;;;;5035527;28;20242;-84
2022/02/19 10:59:05;;;;;;;2.30;1.40;;;15.00;50.90;;;;;;5033010;28;20193;-84
2022/02/19 11:01:45;;;;;;;2.70;0.98;;;14.80;51.40;;;;;;5037948;28;20211;-85
2022/02/19 11:04:14;;;;;;;3.58;1.42;;;14.50;52.70;;;;;;5030132;28;20189;-84
2022/02/19 11:06:39;;;;;;;2.92;1.67;;;14.70;52.50;;;;;;5032177;28;20174;-84
2022/02/19 11:09:06;;;;;;;3.50;1.30;;;14.20;53.00;;;;;;5033083;28;20213;-84
2022/02/19 11:11:34;;;;;;;3.53;1.40;;;14.00;53.60;;;;;;5042027;28;20578;-83
2022/02/19 11:14:04;;;;;;;3.33;1.65;;;14.10;54.00;;;;;;5035155;28;20186;-84
2022/02/19 11:16:31;;;;;;;3.95;1.38;;;14.60;52.60;;;;;;5040535;28;20638;-85
2022/02/19 11:18:57;;;;;;;2.22;1.48;;;15.60;51.40;;;;;;5036782;28;20213;-84
2022/02/19 11:21:24;;;;;;;2.83;1.17;;;15.40;50.80;;;;;;5032642;28;20275;-84
2022/02/19 11:23:52;;;;;;;4.55;1.67;;;15.00;50.00;;;;;;5044481;28;20238;-84
2022/02/19 11:26:21;;;;;;;4.50;1.20;;;14.30;50.90;;;;;;5037003;28;20575;-84
2022/02/19 11:28:46;;;;;;;3.05;1.63;;;15.10;50.90;;;;;;5032646;28;20568;-84
2022/02/19 11:31:14;;;;;;;2.50;1.40;;;15.10;50.70;;;;;;5043354;28;20213;-84
2022/02/19 11:33:43;;;;;;;2.47;1.30;;;15.30;50.60;;;;;;5037648;28;20518;-85
2022/02/19 11:36:09;;;;;;;2.03;1.20;;;15.70;50.40;;;;;;5033858;28;20178;-84
2022/02/19 11:38:46;;;;;;;1.50;1.30;;;16.00;49.10;;;;;;5034271;28;20185;-84
2022/02/19 11:41:15;;;;;;;4.15;1.52;;;15.20;49.70;;;;;;5045918;28;20198;-85
2022/02/19 11:43:44;;;;;;;1.77;1.08;;;14.50;48.20;;;;;;5036213;28;20212;-84
2022/02/19 11:46:15;;;;;;;2.15;1.83;;;14.70;47.70;;;;;;5037627;28;20486;-84
2022/02/19 11:48:43;;;;;;;2.67;1.38;;;15.50;49.00;;;;;;5037220;28;20190;-84
2022/02/19 11:51:10;;;;;;;1.80;1.25;;;15.40;48.20;;;;;;5037748;28;20206;-84
2022/02/19 11:53:35;;;;;;;1.95;1.00;;;15.50;48.10;;;;;;5039746;28;20190;-83
2022/02/19 11:56:01;;;;;;;3.63;1.30;;;15.40;47.90;;;;;;5034114;28;20485;-84
2022/02/19 11:58:26;;;;;;;2.47;1.00;;;15.80;48.60;;;;;;5040193;28;20185;-84
2022/02/19 12:00:56;;;;;;;2.87;1.07;;;16.50;47.10;;;;;;5050479;28;20662;-84
2022/02/19 12:03:33;;;;;;;3.15;1.40;;;15.90;47.80;;;;;;5039597;28;20217;-84
2022/02/19 12:06:27;;;;;;;2.67;1.23;;;15.10;47.80;;;;;;5048263;28;20682;-84
2022/02/19 12:09:10;;;;;;;2.88;1.33;;;14.30;50.10;;;;;;5034198;28;20183;-83
2022/02/19 12:12:00;;;;;;;2.00;1.33;;;13.50;50.50;;;;;;5034601;28;20206;-85
2022/02/19 12:14:51;;;;;;;3.25;1.40;;;13.00;50.50;;;;;;5032612;28;20197;-83
2022/02/19 12:17:22;;;;;;;4.47;1.48;;;13.00;51.50;;;;;;5037788;28;20314;-83
2022/02/19 12:19:59;;;;;;;3.65;1.38;;;13.00;52.00;;;;;;5031347;28;20212;-83
2022/02/19 12:22:39;;;;;;;3.00;1.25;;;12.90;52.40;;;;;;5036973;28;20186;-83
2022/02/19 12:25:10;;;;;;;4.47;2.30;;;12.90;51.40;;;;;;5036407;28;20178;-84
2022/02/19 12:27:37;;;;;;;2.75;1.38;;;12.40;52.60;;;;;;5032303;28;20243;-83
2022/02/19 12:30:19;;;;;;;3.95;1.58;;;12.40;53.00;;;;;;5025159;28;20281;-83
2022/02/19 12:32:46;;;;;;;1.63;0.80;;;12.10;52.40;;;;;;5042344;28;20186;-83
2022/02/19 12:35:12;;;;;;;5.22;1.48;;;11.90;51.60;;;;;;5041594;28;20243;-83
2022/02/19 12:37:38;;;;;;;4.37;2.33;;;12.10;52.30;;;;;;5035860;28;20235;-83
2022/02/19 12:40:04;;;;;;;2.60;1.30;;;11.90;53.70;;;;;;5035021;28;20219;-83
2022/02/19 12:42:31;;;;;;;1.88;0.95;;;11.60;54.40;;;;;;5032813;28;20460;-83
2022/02/19 12:45:08;;;;;;;2.08;1.00;;;11.70;54.30;;;;;;5033008;28;20187;-83
2022/02/19 12:47:35;;;;;;;2.45;1.23;;;11.10;54.10;;;;;;5044842;28;20191;-83
2022/02/19 12:50:03;;;;;;;3.08;1.20;;;11.60;55.50;;;;;;5040920;28;20206;-84
2022/02/19 12:52:28;;;;;;;3.05;1.20;;;10.70;54.90;;;;;;5036021;28;20179;-84
2022/02/19 12:54:55;;;;;;;2.67;1.33;;;10.90;55.60;;;;;;5037663;28;20264;-84
2022/02/19 12:57:23;;;;;;;3.95;1.40;;;11.30;56.00;;;;;;5033341;28;20258;-83
2022/02/19 12:59:51;;;;;;;1.23;0.75;;;11.20;55.70;;;;;;5030317;28;20191;-83
2022/02/19 13:02:19;;;;;;;2.22;1.08;;;11.30;55.70;;;;;;5035207;28;20265;-83
2022/02/19 13:04:45;;;;;;;3.28;1.10;;;11.20;55.60;;;;;;5038032;28;20187;-83